APZ1011 RKSS-RKPC
Flight info
| Callsign | APZ1011 |
|---|---|
| Flight time | 0h 47m |
| Altitude | 26000 |
| Route | BULTI2U BULTI Y711 DOTOL DOTOL2P |
| Aircraft | B738/M-SDE2E3FGHIRWXY/LB1 |
Departure
| Time | 2026-05-05 11:41 |
|---|---|
| Airport | Gimpo International Airport (RKSS) |
Arrival
| Time | 2026-05-05 12:28 |
|---|---|
| Airport | Jeju International Airport (RKPC) |
| Time | Latitude | Longitude | Altitude | Speed | Heading |
|---|---|---|---|---|---|
| 2026-05-05 11:24 | 37.55933 | 126.80102 | 66 ft | 0 kts | 45° |
| 2026-05-05 11:31 | 37.55927 | 126.80094 | 66 ft | 4 kts | 45° |
| 2026-05-05 11:32 | 37.55910 | 126.80072 | 57 ft | 1 kts | 45° |
| 2026-05-05 11:32 | 37.55893 | 126.80051 | 60 ft | 4 kts | 44° |
| 2026-05-05 11:32 | 37.55873 | 126.80029 | 64 ft | 4 kts | 31° |
| 2026-05-05 11:32 | 37.55851 | 126.80020 | 62 ft | 4 kts | 336° |
| 2026-05-05 11:33 | 37.55833 | 126.80039 | 57 ft | 4 kts | 315° |
| 2026-05-05 11:33 | 37.55828 | 126.80046 | 57 ft | 0 kts | 315° |
| 2026-05-05 11:35 | 37.55851 | 126.80017 | 62 ft | 12 kts | 315° |
| 2026-05-05 11:35 | 37.55901 | 126.79898 | 66 ft | 17 kts | 277° |
| 2026-05-05 11:36 | 37.55918 | 126.79758 | 66 ft | 16 kts | 279° |
| 2026-05-05 11:36 | 37.55936 | 126.79622 | 62 ft | 15 kts | 279° |
| 2026-05-05 11:36 | 37.55973 | 126.79502 | 65 ft | 15 kts | 312° |
| 2026-05-05 11:36 | 37.56044 | 126.79414 | 63 ft | 15 kts | 315° |
| 2026-05-05 11:37 | 37.56132 | 126.79302 | 62 ft | 21 kts | 315° |
| 2026-05-05 11:37 | 37.56238 | 126.79169 | 59 ft | 21 kts | 315° |
| 2026-05-05 11:37 | 37.56341 | 126.79039 | 61 ft | 21 kts | 315° |
| 2026-05-05 11:37 | 37.56442 | 126.78913 | 62 ft | 20 kts | 315° |
| 2026-05-05 11:38 | 37.56539 | 126.78790 | 66 ft | 19 kts | 315° |
| 2026-05-05 11:38 | 37.56633 | 126.78671 | 61 ft | 19 kts | 315° |
| 2026-05-05 11:38 | 37.56724 | 126.78557 | 64 ft | 18 kts | 315° |
| 2026-05-05 11:38 | 37.56810 | 126.78448 | 61 ft | 18 kts | 315° |
| 2026-05-05 11:39 | 37.56896 | 126.78340 | 66 ft | 17 kts | 315° |
| 2026-05-05 11:39 | 37.56977 | 126.78238 | 63 ft | 16 kts | 315° |
| 2026-05-05 11:39 | 37.57056 | 126.78140 | 64 ft | 16 kts | 315° |
| 2026-05-05 11:39 | 37.57131 | 126.78045 | 62 ft | 15 kts | 315° |
| 2026-05-05 11:40 | 37.57136 | 126.77937 | 62 ft | 14 kts | 225° |
| 2026-05-05 11:40 | 37.57062 | 126.77861 | 62 ft | 14 kts | 186° |
| 2026-05-05 11:40 | 37.56986 | 126.77932 | 67 ft | 19 kts | 135° |
| 2026-05-05 11:40 | 37.56695 | 126.78297 | 60 ft | 99 kts | 135° |
| 2026-05-05 11:41 | 37.56042 | 126.79114 | 64 ft | 166 kts | 137° |
| 2026-05-05 11:41 | 37.55147 | 126.80189 | 624 ft | 185 kts | 137° |
| 2026-05-05 11:41 | 37.54217 | 126.81349 | 1564 ft | 189 kts | 139° |
| 2026-05-05 11:41 | 37.53278 | 126.82534 | 2428 ft | 198 kts | 140° |
| 2026-05-05 11:42 | 37.52242 | 126.83835 | 2709 ft | 224 kts | 139° |
| 2026-05-05 11:42 | 37.51096 | 126.85281 | 3025 ft | 245 kts | 139° |
| 2026-05-05 11:42 | 37.49753 | 126.86716 | 3406 ft | 258 kts | 156° |
| 2026-05-05 11:42 | 37.48051 | 126.87468 | 4213 ft | 260 kts | 166° |
| 2026-05-05 11:43 | 37.46300 | 126.88148 | 5033 ft | 267 kts | 165° |
| 2026-05-05 11:43 | 37.44509 | 126.88852 | 5694 ft | 270 kts | 165° |
| 2026-05-05 11:43 | 37.42717 | 126.89564 | 6035 ft | 271 kts | 165° |
| 2026-05-05 11:43 | 37.40913 | 126.90282 | 6074 ft | 279 kts | 165° |
| 2026-05-05 11:44 | 37.39070 | 126.91017 | 6080 ft | 276 kts | 165° |
| 2026-05-05 11:44 | 37.37253 | 126.91764 | 6077 ft | 274 kts | 160° |
| 2026-05-05 11:44 | 37.35573 | 126.92944 | 6252 ft | 279 kts | 148° |
| 2026-05-05 11:44 | 37.33969 | 126.94365 | 6983 ft | 283 kts | 147° |
| 2026-05-05 11:45 | 37.32363 | 126.95816 | 7684 ft | 286 kts | 147° |
| 2026-05-05 11:45 | 37.30739 | 126.97261 | 8026 ft | 287 kts | 147° |
| 2026-05-05 11:45 | 37.29100 | 126.98690 | 8074 ft | 286 kts | 148° |
| 2026-05-05 11:45 | 37.27456 | 127.00109 | 8075 ft | 287 kts | 148° |
| 2026-05-05 11:46 | 37.25806 | 127.01527 | 8080 ft | 288 kts | 148° |
| 2026-05-05 11:46 | 37.24079 | 127.02766 | 8064 ft | 285 kts | 166° |
| 2026-05-05 11:46 | 37.22166 | 127.03014 | 8162 ft | 280 kts | 190° |
| 2026-05-05 11:46 | 37.20279 | 127.02423 | 8814 ft | 281 kts | 199° |
| 2026-05-05 11:47 | 37.18406 | 127.01692 | 9687 ft | 283 kts | 199° |
| 2026-05-05 11:47 | 37.16507 | 127.00941 | 10414 ft | 289 kts | 199° |
| 2026-05-05 11:47 | 37.14504 | 127.00156 | 10630 ft | 314 kts | 199° |
| 2026-05-05 11:47 | 37.12336 | 126.99319 | 10817 ft | 337 kts | 198° |
| 2026-05-05 11:48 | 37.07609 | 126.97510 | 11545 ft | 366 kts | 198° |
| 2026-05-05 11:48 | 37.05988 | 126.96892 | 11980 ft | 369 kts | 197° |
| 2026-05-05 11:48 | 37.02700 | 126.95639 | 12898 ft | 374 kts | 197° |
| 2026-05-05 11:49 | 37.00194 | 126.94684 | 13535 ft | 379 kts | 197° |
| 2026-05-05 11:49 | 36.98481 | 126.94031 | 13946 ft | 382 kts | 197° |
| 2026-05-05 11:49 | 36.95920 | 126.93055 | 14531 ft | 387 kts | 197° |
| 2026-05-05 11:49 | 36.92499 | 126.91744 | 15358 ft | 391 kts | 198° |
| 2026-05-05 11:50 | 36.90755 | 126.90999 | 15772 ft | 393 kts | 199° |
| 2026-05-05 11:50 | 36.88178 | 126.89819 | 16025 ft | 395 kts | 200° |
| 2026-05-05 11:50 | 36.85632 | 126.88623 | 16031 ft | 395 kts | 200° |
| 2026-05-05 11:50 | 36.83058 | 126.87418 | 16042 ft | 396 kts | 200° |
| 2026-05-05 11:51 | 36.80471 | 126.86222 | 16052 ft | 396 kts | 200° |
| 2026-05-05 11:51 | 36.77882 | 126.85038 | 16052 ft | 396 kts | 200° |
| 2026-05-05 11:51 | 36.75322 | 126.83874 | 16054 ft | 397 kts | 199° |
| 2026-05-05 11:51 | 36.72711 | 126.82750 | 16048 ft | 397 kts | 194° |
| 2026-05-05 11:52 | 36.69962 | 126.82451 | 16158 ft | 400 kts | 177° |
| 2026-05-05 11:52 | 36.67175 | 126.82613 | 16816 ft | 400 kts | 177° |
| 2026-05-05 11:52 | 36.64392 | 126.82762 | 17542 ft | 400 kts | 177° |
| 2026-05-05 11:52 | 36.61631 | 126.82884 | 18143 ft | 404 kts | 178° |
| 2026-05-05 11:53 | 36.58807 | 126.82990 | 18655 ft | 408 kts | 178° |
| 2026-05-05 11:53 | 36.55954 | 126.83091 | 19169 ft | 411 kts | 178° |
| 2026-05-05 11:53 | 36.53086 | 126.83198 | 19707 ft | 413 kts | 178° |
| 2026-05-05 11:53 | 36.50198 | 126.83316 | 20221 ft | 416 kts | 178° |
| 2026-05-05 11:54 | 36.47293 | 126.83439 | 20702 ft | 419 kts | 178° |
| 2026-05-05 11:54 | 36.44368 | 126.83562 | 21189 ft | 422 kts | 178° |
| 2026-05-05 11:54 | 36.41419 | 126.83684 | 21671 ft | 425 kts | 178° |
| 2026-05-05 11:54 | 36.38454 | 126.83787 | 22141 ft | 428 kts | 180° |
| 2026-05-05 11:55 | 36.35503 | 126.83596 | 22591 ft | 431 kts | 185° |
| 2026-05-05 11:55 | 36.32515 | 126.83242 | 23046 ft | 433 kts | 186° |
| 2026-05-05 11:55 | 36.29505 | 126.82855 | 23491 ft | 436 kts | 186° |
| 2026-05-05 11:55 | 36.26472 | 126.82477 | 23882 ft | 439 kts | 186° |
| 2026-05-05 11:56 | 36.23418 | 126.82118 | 24254 ft | 442 kts | 186° |
| 2026-05-05 11:56 | 36.20345 | 126.81774 | 24629 ft | 444 kts | 186° |
| 2026-05-05 11:56 | 36.17258 | 126.81435 | 25000 ft | 446 kts | 186° |
| 2026-05-05 11:56 | 36.14163 | 126.81096 | 25359 ft | 448 kts | 186° |
| 2026-05-05 11:57 | 36.11043 | 126.80756 | 25687 ft | 451 kts | 186° |
| 2026-05-05 11:57 | 36.07907 | 126.80414 | 26012 ft | 453 kts | 186° |
| 2026-05-05 11:57 | 36.04752 | 126.80071 | 26072 ft | 454 kts | 186° |
| 2026-05-05 11:57 | 36.01656 | 126.79735 | 26083 ft | 451 kts | 186° |
| 2026-05-05 11:58 | 35.98518 | 126.79393 | 26097 ft | 454 kts | 186° |
| 2026-05-05 11:58 | 35.95340 | 126.79047 | 26100 ft | 461 kts | 186° |
| 2026-05-05 11:58 | 35.92122 | 126.78697 | 26100 ft | 467 kts | 186° |
| 2026-05-05 11:58 | 35.88862 | 126.78343 | 26099 ft | 473 kts | 186° |
| 2026-05-05 11:59 | 35.85565 | 126.77987 | 26096 ft | 478 kts | 186° |
| 2026-05-05 11:59 | 35.82239 | 126.77628 | 26090 ft | 480 kts | 186° |
| 2026-05-05 11:59 | 35.78907 | 126.77270 | 26079 ft | 479 kts | 186° |
| 2026-05-05 11:59 | 35.75585 | 126.76913 | 26088 ft | 478 kts | 186° |
| 2026-05-05 12:00 | 35.72266 | 126.76557 | 26094 ft | 478 kts | 186° |
| 2026-05-05 12:00 | 35.68947 | 126.76200 | 26100 ft | 477 kts | 186° |
| 2026-05-05 12:00 | 35.65679 | 126.75849 | 26097 ft | 477 kts | 187° |
| 2026-05-05 12:00 | 35.62368 | 126.75494 | 26110 ft | 477 kts | 187° |
| 2026-05-05 12:01 | 35.59057 | 126.75138 | 26108 ft | 477 kts | 187° |
| 2026-05-05 12:01 | 35.55755 | 126.74784 | 26116 ft | 476 kts | 187° |
| 2026-05-05 12:01 | 35.52444 | 126.74430 | 26117 ft | 476 kts | 187° |
| 2026-05-05 12:01 | 35.49180 | 126.74081 | 26120 ft | 476 kts | 187° |
| 2026-05-05 12:02 | 35.45882 | 126.73730 | 26123 ft | 475 kts | 187° |
| 2026-05-05 12:02 | 35.42587 | 126.73381 | 26117 ft | 475 kts | 187° |
| 2026-05-05 12:02 | 35.39284 | 126.73031 | 26112 ft | 475 kts | 187° |
| 2026-05-05 12:02 | 35.35989 | 126.72682 | 26121 ft | 475 kts | 187° |
| 2026-05-05 12:03 | 35.32693 | 126.72333 | 26127 ft | 474 kts | 187° |
| 2026-05-05 12:03 | 35.29404 | 126.71985 | 26123 ft | 474 kts | 187° |
| 2026-05-05 12:03 | 35.26114 | 126.71637 | 26122 ft | 474 kts | 187° |
| 2026-05-05 12:03 | 35.22869 | 126.71294 | 26126 ft | 474 kts | 187° |
| 2026-05-05 12:04 | 35.19575 | 126.70947 | 26130 ft | 474 kts | 187° |
| 2026-05-05 12:04 | 35.16289 | 126.70600 | 26116 ft | 474 kts | 187° |
| 2026-05-05 12:04 | 35.13007 | 126.70254 | 26127 ft | 473 kts | 187° |
| 2026-05-05 12:04 | 35.09721 | 126.69907 | 26117 ft | 473 kts | 187° |
| 2026-05-05 12:05 | 35.06551 | 126.69572 | 26121 ft | 473 kts | 188° |
| 2026-05-05 12:05 | 35.03270 | 126.69225 | 26114 ft | 468 kts | 188° |
| 2026-05-05 12:05 | 35.00017 | 126.68882 | 26117 ft | 469 kts | 188° |
| 2026-05-05 12:05 | 34.96754 | 126.68536 | 26124 ft | 471 kts | 188° |
| 2026-05-05 12:06 | 34.93570 | 126.68201 | 26069 ft | 457 kts | 188° |
| 2026-05-05 12:06 | 34.90460 | 126.67877 | 25956 ft | 440 kts | 188° |
| 2026-05-05 12:06 | 34.87460 | 126.67564 | 25776 ft | 427 kts | 188° |
| 2026-05-05 12:06 | 34.84519 | 126.67255 | 25329 ft | 422 kts | 188° |
| 2026-05-05 12:07 | 34.81596 | 126.66945 | 24750 ft | 420 kts | 188° |
| 2026-05-05 12:07 | 34.78683 | 126.66636 | 24284 ft | 417 kts | 188° |
| 2026-05-05 12:07 | 34.75829 | 126.66337 | 24157 ft | 404 kts | 188° |
| 2026-05-05 12:07 | 34.73050 | 126.66045 | 23794 ft | 400 kts | 188° |
| 2026-05-05 12:08 | 34.70278 | 126.65753 | 23208 ft | 399 kts | 188° |
| 2026-05-05 12:08 | 34.67513 | 126.65461 | 22652 ft | 398 kts | 188° |
| 2026-05-05 12:08 | 34.64800 | 126.65175 | 22143 ft | 395 kts | 188° |
| 2026-05-05 12:08 | 34.62073 | 126.64889 | 21659 ft | 392 kts | 188° |
| 2026-05-05 12:09 | 34.59362 | 126.64605 | 21194 ft | 389 kts | 187° |
| 2026-05-05 12:09 | 34.56671 | 126.64323 | 20720 ft | 387 kts | 187° |
| 2026-05-05 12:09 | 34.53994 | 126.64043 | 20257 ft | 385 kts | 187° |
| 2026-05-05 12:09 | 34.51331 | 126.63764 | 19793 ft | 383 kts | 187° |
| 2026-05-05 12:10 | 34.48677 | 126.63487 | 19346 ft | 381 kts | 187° |
| 2026-05-05 12:10 | 34.46042 | 126.63212 | 18915 ft | 379 kts | 187° |
| 2026-05-05 12:10 | 34.43417 | 126.62938 | 18473 ft | 377 kts | 187° |
| 2026-05-05 12:10 | 34.40807 | 126.62664 | 18003 ft | 375 kts | 187° |
| 2026-05-05 12:11 | 34.38251 | 126.62389 | 17569 ft | 372 kts | 187° |
| 2026-05-05 12:11 | 34.35681 | 126.62111 | 17152 ft | 369 kts | 187° |
| 2026-05-05 12:11 | 34.33129 | 126.61834 | 16705 ft | 366 kts | 187° |
| 2026-05-05 12:11 | 34.30595 | 126.61560 | 16268 ft | 364 kts | 187° |
| 2026-05-05 12:12 | 34.28077 | 126.61289 | 15844 ft | 362 kts | 187° |
| 2026-05-05 12:12 | 34.25579 | 126.61020 | 15428 ft | 360 kts | 187° |
| 2026-05-05 12:12 | 34.23091 | 126.60758 | 15027 ft | 357 kts | 186° |
| 2026-05-05 12:12 | 34.20621 | 126.60502 | 14628 ft | 355 kts | 186° |
| 2026-05-05 12:13 | 34.18163 | 126.60250 | 14241 ft | 353 kts | 186° |
| 2026-05-05 12:13 | 34.15722 | 126.59970 | 13830 ft | 350 kts | 191° |
| 2026-05-05 12:13 | 34.13387 | 126.59183 | 13378 ft | 346 kts | 203° |
| 2026-05-05 12:13 | 34.11230 | 126.58025 | 12943 ft | 343 kts | 206° |
| 2026-05-05 12:14 | 34.09068 | 126.56817 | 12461 ft | 342 kts | 206° |
| 2026-05-05 12:14 | 34.06907 | 126.55603 | 12000 ft | 340 kts | 206° |
| 2026-05-05 12:14 | 34.04772 | 126.54408 | 11679 ft | 334 kts | 206° |
| 2026-05-05 12:14 | 34.02729 | 126.53271 | 11562 ft | 314 kts | 205° |
| 2026-05-05 12:15 | 34.00796 | 126.52201 | 11439 ft | 296 kts | 205° |
| 2026-05-05 12:15 | 33.98948 | 126.51181 | 11149 ft | 290 kts | 205° |
| 2026-05-05 12:15 | 33.97113 | 126.50168 | 10833 ft | 289 kts | 205° |
| 2026-05-05 12:15 | 33.95311 | 126.49176 | 10546 ft | 288 kts | 205° |
| 2026-05-05 12:16 | 33.93471 | 126.48164 | 10246 ft | 286 kts | 205° |
| 2026-05-05 12:16 | 33.91773 | 126.47231 | 9945 ft | 285 kts | 205° |
| 2026-05-05 12:16 | 33.89970 | 126.46241 | 9610 ft | 285 kts | 205° |
| 2026-05-05 12:16 | 33.88169 | 126.45253 | 9282 ft | 283 kts | 205° |
| 2026-05-05 12:17 | 33.86374 | 126.44269 | 8973 ft | 282 kts | 205° |
| 2026-05-05 12:17 | 33.84589 | 126.43290 | 8654 ft | 281 kts | 205° |
| 2026-05-05 12:17 | 33.82808 | 126.42315 | 8346 ft | 280 kts | 205° |
| 2026-05-05 12:17 | 33.81036 | 126.41345 | 8025 ft | 279 kts | 205° |
| 2026-05-05 12:18 | 33.79268 | 126.40377 | 7714 ft | 278 kts | 205° |
| 2026-05-05 12:18 | 33.77509 | 126.39416 | 7474 ft | 275 kts | 205° |
| 2026-05-05 12:18 | 33.75800 | 126.38482 | 7381 ft | 266 kts | 205° |
| 2026-05-05 12:18 | 33.74123 | 126.37566 | 7138 ft | 264 kts | 205° |
| 2026-05-05 12:19 | 33.72450 | 126.36652 | 6844 ft | 264 kts | 205° |
| 2026-05-05 12:19 | 33.70779 | 126.35739 | 6569 ft | 263 kts | 205° |
| 2026-05-05 12:19 | 33.69134 | 126.34841 | 6295 ft | 262 kts | 205° |
| 2026-05-05 12:19 | 33.67478 | 126.33938 | 6015 ft | 261 kts | 205° |
| 2026-05-05 12:20 | 33.65827 | 126.33036 | 5747 ft | 260 kts | 205° |
| 2026-05-05 12:20 | 33.64184 | 126.32141 | 5474 ft | 259 kts | 205° |
| 2026-05-05 12:20 | 33.62546 | 126.31249 | 5197 ft | 258 kts | 205° |
| 2026-05-05 12:20 | 33.60912 | 126.30360 | 4923 ft | 257 kts | 205° |
| 2026-05-05 12:21 | 33.59281 | 126.29472 | 4669 ft | 255 kts | 205° |
| 2026-05-05 12:21 | 33.57691 | 126.28606 | 4594 ft | 246 kts | 205° |
| 2026-05-05 12:21 | 33.56157 | 126.27772 | 4512 ft | 237 kts | 205° |
| 2026-05-05 12:21 | 33.54682 | 126.26969 | 4427 ft | 229 kts | 205° |
| 2026-05-05 12:22 | 33.53273 | 126.26203 | 4297 ft | 222 kts | 205° |
| 2026-05-05 12:22 | 33.51895 | 126.25455 | 4203 ft | 210 kts | 205° |
| 2026-05-05 12:22 | 33.50593 | 126.24748 | 4057 ft | 201 kts | 205° |
| 2026-05-05 12:22 | 33.49326 | 126.24059 | 4017 ft | 199 kts | 205° |
| 2026-05-05 12:23 | 33.48065 | 126.23375 | 3995 ft | 199 kts | 205° |
| 2026-05-05 12:23 | 33.46763 | 126.22878 | 3961 ft | 197 kts | 181° |
| 2026-05-05 12:23 | 33.45471 | 126.23346 | 3986 ft | 198 kts | 146° |
| 2026-05-05 12:23 | 33.44559 | 126.24600 | 4003 ft | 203 kts | 123° |
| 2026-05-05 12:24 | 33.43868 | 126.26078 | 3893 ft | 202 kts | 120° |
| 2026-05-05 12:24 | 33.43211 | 126.27554 | 3601 ft | 201 kts | 120° |
| 2026-05-05 12:24 | 33.42557 | 126.29018 | 3351 ft | 196 kts | 120° |
| 2026-05-05 12:24 | 33.42227 | 126.30544 | 3089 ft | 194 kts | 81° |
| 2026-05-05 12:25 | 33.42712 | 126.32005 | 2915 ft | 188 kts | 66° |
| 2026-05-05 12:25 | 33.43253 | 126.33406 | 2669 ft | 180 kts | 67° |
| 2026-05-05 12:25 | 33.43806 | 126.34691 | 2440 ft | 168 kts | 63° |
| 2026-05-05 12:25 | 33.44383 | 126.35868 | 2200 ft | 161 kts | 61° |
| 2026-05-05 12:26 | 33.44966 | 126.37020 | 1993 ft | 163 kts | 61° |
| 2026-05-05 12:26 | 33.45555 | 126.38172 | 1775 ft | 162 kts | 62° |
| 2026-05-05 12:26 | 33.46130 | 126.39300 | 1562 ft | 160 kts | 62° |
| 2026-05-05 12:26 | 33.46710 | 126.40433 | 1334 ft | 158 kts | 62° |
| 2026-05-05 12:27 | 33.47281 | 126.41552 | 1143 ft | 156 kts | 60° |
| 2026-05-05 12:27 | 33.47843 | 126.42650 | 944 ft | 153 kts | 59° |
| 2026-05-05 12:27 | 33.48406 | 126.43751 | 707 ft | 156 kts | 60° |
| 2026-05-05 12:27 | 33.48973 | 126.44857 | 502 ft | 155 kts | 59° |
| 2026-05-05 12:28 | 33.49535 | 126.45955 | 284 ft | 154 kts | 59° |
| 2026-05-05 12:28 | 33.50090 | 126.47035 | 104 ft | 148 kts | 59° |
| 2026-05-05 12:28 | 33.50555 | 126.47945 | 90 ft | 102 kts | 58° |
| 2026-05-05 12:28 | 33.50814 | 126.48448 | 93 ft | 40 kts | 58° |
| 2026-05-05 12:29 | 33.50882 | 126.48682 | 94 ft | 28 kts | 81° |
| 2026-05-05 12:29 | 33.50887 | 126.48905 | 93 ft | 25 kts | 89° |
| 2026-05-05 12:29 | 33.50949 | 126.49090 | 93 ft | 23 kts | 58° |
| 2026-05-05 12:29 | 33.51033 | 126.49247 | 88 ft | 18 kts | 58° |
| 2026-05-05 12:30 | 33.51026 | 126.49348 | 86 ft | 13 kts | 148° |
| 2026-05-05 12:30 | 33.50953 | 126.49405 | 87 ft | 12 kts | 140° |
| 2026-05-05 12:30 | 33.50879 | 126.49437 | 91 ft | 10 kts | 178° |
| 2026-05-05 12:30 | 33.50824 | 126.49440 | 91 ft | 7 kts | 176° |
| 2026-05-05 12:31 | 33.50804 | 126.49441 | 92 ft | 0 kts | 177° |